Time;durP1;ratioP1;P1;durP2;ratioP2;P2;SDS_P1;SDS_P2;PMS_P1;PMS_P2;Temp;Humidity;BMP_temperature;BMP_pressure;BME280_temperature;BME280_humidity;BME280_pressure;Samples;Min_cycle;Max_cycle;Signal;HPM_P1;HPM_P2
2021/07/14 00:00:36;;;;;;;19.23;17.27;;;20.80;99.90;;;;;;5098829;28;20174;-71
2021/07/14 00:03:02;;;;;;;20.60;18.70;;;20.80;99.90;;;;;;5098802;28;20228;-70
2021/07/14 00:05:28;;;;;;;21.07;19.17;;;20.80;99.90;;;;;;5098976;28;20292;-71
2021/07/14 00:07:53;;;;;;;20.57;18.67;;;20.80;99.90;;;;;;5097168;28;20411;-70
2021/07/14 00:10:23;;;;;;;20.70;18.63;;;20.80;99.90;;;;;;5097309;28;20532;-70
2021/07/14 00:13:20;;;;;;;19.50;17.60;;;20.80;99.90;;;;;;5095998;28;20559;-69
2021/07/14 00:23:42;;;;;;;20.07;18.27;;;20.70;99.90;;;;;;5095611;28;20536;-71
2021/07/14 00:26:08;;;;;;;19.47;17.87;;;20.70;99.90;;;;;;5094975;28;20450;-70
2021/07/14 00:28:34;;;;;;;19.23;17.53;;;20.60;99.90;;;;;;5095050;28;20509;-70
2021/07/14 00:31:02;;;;;;;19.83;18.03;;;20.60;99.90;;;;;;5094844;28;20404;-71
2021/07/14 00:33:29;;;;;;;21.63;18.33;;;20.60;99.90;;;;;;5095026;28;20399;-69
2021/07/14 00:35:55;;;;;;;20.10;17.40;;;20.60;99.90;;;;;;5095345;28;20409;-71
2021/07/14 00:38:20;;;;;;;23.73;18.30;;;20.60;99.90;;;;;;5096753;28;20415;-71
2021/07/14 00:40:46;;;;;;;19.30;17.53;;;20.60;99.90;;;;;;5098283;28;20172;-71
2021/07/14 00:43:12;;;;;;;20.03;18.03;;;20.60;99.90;;;;;;5096925;28;20290;-71
2021/07/14 00:45:38;;;;;;;18.13;16.47;;;20.60;99.90;;;;;;5095946;28;20244;-70
2021/07/14 00:48:04;;;;;;;18.43;16.77;;;20.60;99.90;;;;;;5095744;28;20168;-71
2021/07/14 00:50:30;;;;;;;17.73;16.13;;;20.60;99.90;;;;;;5095883;28;20419;-70
2021/07/14 00:52:57;;;;;;;17.17;15.67;;;20.60;99.90;;;;;;5095947;28;20867;-70
2021/07/14 00:55:22;;;;;;;19.00;17.30;;;20.60;99.90;;;;;;5094266;28;20543;-70
2021/07/14 00:57:47;;;;;;;19.20;16.90;;;20.60;99.90;;;;;;5095141;28;20479;-70
2021/07/14 01:00:13;;;;;;;19.47;17.60;;;20.60;99.90;;;;;;5095684;28;20209;-70
2021/07/14 01:02:40;;;;;;;18.47;16.77;;;20.60;99.90;;;;;;5095759;28;20176;-71
2021/07/14 01:05:15;;;;;;;18.40;16.70;;;20.60;99.90;;;;;;5095581;28;20666;-71
2021/07/14 01:07:54;;;;;;;20.00;18.17;;;20.60;99.90;;;;;;5093614;28;20407;-70
2021/07/14 01:10:41;;;;;;;18.73;16.83;;;20.50;99.90;;;;;;5093965;28;20736;-71
2021/07/14 01:13:29;;;;;;;20.53;18.33;;;20.50;99.90;;;;;;5063836;28;20424;-71
2021/07/14 01:16:08;;;;;;;19.73;17.63;;;20.50;99.90;;;;;;5074049;28;20435;-71
2021/07/14 01:18:41;;;;;;;21.53;19.30;;;20.50;99.90;;;;;;5073780;28;20429;-71
2021/07/14 01:21:16;;;;;;;21.63;19.53;;;20.50;99.90;;;;;;5074393;28;20391;-70
2021/07/14 01:24:04;;;;;;;18.90;17.10;;;20.50;99.90;;;;;;5074095;28;20460;-71
2021/07/14 01:27:10;;;;;;;20.60;18.70;;;20.40;99.90;;;;;;5073167;28;20457;-71
2021/07/14 01:29:44;;;;;;;19.10;17.10;;;20.30;99.90;;;;;;5051922;28;20431;-71
2021/07/14 01:32:12;;;;;;;21.70;19.53;;;20.30;99.90;;;;;;5072682;28;20403;-71
2021/07/14 01:34:41;;;;;;;23.30;20.57;;;20.30;99.90;;;;;;5072268;28;20393;-71
2021/07/14 01:37:10;;;;;;;20.63;18.53;;;20.30;99.90;;;;;;5072143;28;20407;-71
2021/07/14 01:39:36;;;;;;;22.63;20.30;;;20.30;99.90;;;;;;5072498;28;20431;-71
2021/07/14 01:42:04;;;;;;;20.50;18.30;;;20.30;99.90;;;;;;5072307;28;20403;-71
2021/07/14 01:44:30;;;;;;;21.53;19.63;;;20.30;99.90;;;;;;5072288;28;20401;-71
2021/07/14 01:46:59;;;;;;;21.43;19.30;;;20.20;99.90;;;;;;5071332;28;20410;-70
2021/07/14 01:49:28;;;;;;;21.60;19.60;;;20.20;99.90;;;;;;5072258;28;20427;-71
2021/07/14 01:52:06;;;;;;;22.70;20.50;;;20.20;99.90;;;;;;5071932;28;20481;-71
2021/07/14 01:54:32;;;;;;;21.00;19.00;;;20.20;99.90;;;;;;5070954;28;20413;-70
2021/07/14 01:57:00;;;;;;;23.30;21.10;;;20.10;99.90;;;;;;5071928;28;20408;-71
2021/07/14 01:59:27;;;;;;;24.27;20.60;;;20.10;99.90;;;;;;5072365;28;20422;-71
2021/07/14 02:01:54;;;;;;;21.60;19.47;;;20.10;99.90;;;;;;5071937;28;20410;-72
2021/07/14 02:04:32;;;;;;;23.50;21.40;;;20.10;99.90;;;;;;5072052;28;20484;-71
2021/07/14 02:07:24;;;;;;;21.90;19.80;;;20.10;99.90;;;;;;5072126;28;20441;-71
2021/07/14 02:09:50;;;;;;;23.63;21.20;;;20.10;99.90;;;;;;5062323;28;20446;-71
2021/07/14 02:12:21;;;;;;;21.70;19.63;;;20.10;99.90;;;;;;5072151;28;20470;-71
2021/07/14 02:15:01;;;;;;;24.43;21.83;;;20.10;99.90;;;;;;5072374;28;20448;-71
2021/07/14 02:17:30;;;;;;;22.20;19.30;;;20.10;99.90;;;;;;5071144;28;20800;-71
2021/07/14 02:20:00;;;;;;;22.90;20.80;;;20.00;99.90;;;;;;5072636;28;20436;-71
2021/07/14 02:22:27;;;;;;;22.13;19.73;;;20.00;99.90;;;;;;5072771;28;20399;-70
2021/07/14 02:24:54;;;;;;;23.70;21.53;;;20.00;99.90;;;;;;5071958;28;20463;-71
2021/07/14 02:27:19;;;;;;;23.47;21.17;;;20.00;99.90;;;;;;5071944;28;20454;-71
2021/07/14 02:29:47;;;;;;;21.20;19.30;;;20.00;99.90;;;;;;5071559;28;20431;-70
2021/07/14 02:32:15;;;;;;;22.93;20.53;;;20.00;99.90;;;;;;5071544;28;20274;-70
2021/07/14 02:34:44;;;;;;;23.77;21.47;;;20.00;99.90;;;;;;5071448;28;20495;-70
2021/07/14 02:37:12;;;;;;;23.13;20.83;;;20.00;99.90;;;;;;5071383;28;20416;-71
2021/07/14 02:39:40;;;;;;;23.83;21.40;;;20.00;99.90;;;;;;5071570;28;20436;-73
2021/07/14 02:42:17;;;;;;;22.97;20.70;;;19.90;99.90;;;;;;5072096;28;20484;-72
2021/07/14 02:44:45;;;;;;;20.97;18.80;;;20.00;99.90;;;;;;5071931;28;20404;-69
2021/07/14 02:47:12;;;;;;;23.07;20.83;;;20.00;99.90;;;;;;5072072;28;20502;-71
2021/07/14 02:49:40;;;;;;;22.47;20.27;;;19.90;99.90;;;;;;5072330;28;20790;-71
2021/07/14 02:52:12;;;;;;;21.60;19.50;;;19.90;99.90;;;;;;5072504;28;20437;-70
2021/07/14 02:54:43;;;;;;;20.90;18.70;;;19.90;99.90;;;;;;5072092;28;20410;-70
2021/07/14 02:57:12;;;;;;;20.53;18.03;;;19.90;99.90;;;;;;5071634;28;20787;-72
2021/07/14 02:59:41;;;;;;;24.47;19.70;;;20.00;99.90;;;;;;5075047;28;20433;-72
2021/07/14 03:02:08;;;;;;;21.40;19.20;;;20.00;99.90;;;;;;5074630;28;20819;-72
2021/07/14 03:04:47;;;;;;;19.93;17.90;;;20.00;99.90;;;;;;5075003;28;20429;-72
2021/07/14 03:07:15;;;;;;;21.40;19.30;;;20.00;99.90;;;;;;5075191;28;20426;-72
2021/07/14 03:09:41;;;;;;;21.70;17.43;;;20.00;99.90;;;;;;5075140;28;20772;-71
2021/07/14 03:12:10;;;;;;;19.87;17.67;;;20.00;99.90;;;;;;5074580;28;20484;-71
2021/07/14 03:14:38;;;;;;;21.50;19.40;;;20.00;99.90;;;;;;5074461;28;20403;-71
2021/07/14 03:17:05;;;;;;;20.60;18.57;;;20.00;99.90;;;;;;5074168;28;20410;-71
2021/07/14 03:19:32;;;;;;;19.13;17.13;;;20.00;99.90;;;;;;5074272;28;20434;-71
2021/07/14 03:21:58;;;;;;;20.60;18.50;;;20.00;99.90;;;;;;5074178;28;20405;-71
2021/07/14 03:24:24;;;;;;;20.50;17.47;;;20.00;99.90;;;;;;5074247;28;20406;-71
2021/07/14 03:26:50;;;;;;;17.70;15.93;;;20.00;99.90;;;;;;5074030;28;20454;-71
2021/07/14 03:29:17;;;;;;;17.87;16.10;;;20.00;99.90;;;;;;5074215;28;20796;-71
2021/07/14 03:31:45;;;;;;;17.00;15.33;;;20.00;99.90;;;;;;5074032;28;20413;-71
2021/07/14 03:34:11;;;;;;;20.70;15.97;;;19.90;99.90;;;;;;5074272;28;20895;-70
2021/07/14 03:36:37;;;;;;;17.50;14.37;;;19.90;99.90;;;;;;5074216;28;20427;-70
2021/07/14 03:39:04;;;;;;;16.93;15.23;;;19.90;99.90;;;;;;5073873;28;20464;-70
2021/07/14 03:41:30;;;;;;;16.10;14.40;;;19.90;99.90;;;;;;5073998;28;20978;-71
2021/07/14 03:43:56;;;;;;;16.57;14.77;;;19.90;99.90;;;;;;5075551;28;20474;-71
2021/07/14 03:46:23;;;;;;;15.37;13.63;;;19.90;99.90;;;;;;5074024;28;20441;-71
2021/07/14 03:48:51;;;;;;;15.93;14.33;;;19.90;99.90;;;;;;5073882;28;20486;-71
2021/07/14 03:51:17;;;;;;;16.13;14.47;;;19.90;99.90;;;;;;5074479;28;20410;-71
2021/07/14 03:53:43;;;;;;;15.03;13.50;;;19.90;99.90;;;;;;5076741;28;20441;-71
2021/07/14 03:56:09;;;;;;;15.43;13.93;;;19.90;99.90;;;;;;5075998;28;20175;-71
2021/07/14 03:58:35;;;;;;;17.27;13.53;;;19.90;99.90;;;;;;5074171;28;21031;-71
2021/07/14 04:01:01;;;;;;;14.53;12.53;;;19.90;99.90;;;;;;5073921;28;20504;-71
2021/07/14 04:03:28;;;;;;;13.67;11.40;;;19.90;99.90;;;;;;5073811;28;20918;-70
2021/07/14 04:06:02;;;;;;;13.90;12.60;;;20.00;99.90;;;;;;5071712;28;20205;-71
2021/07/14 04:08:32;;;;;;;15.50;12.60;;;19.90;99.90;;;;;;5073250;28;20696;-70
2021/07/14 04:10:58;;;;;;;13.03;11.80;;;19.90;99.90;;;;;;5075312;28;20421;-70
2021/07/14 04:13:23;;;;;;;13.43;12.23;;;19.90;99.90;;;;;;5072334;28;20415;-70
2021/07/14 04:15:49;;;;;;;13.03;10.70;;;19.90;99.90;;;;;;5076621;28;20650;-70
2021/07/14 04:18:14;;;;;;;13.07;11.47;;;19.90;99.90;;;;;;5076446;28;20173;-71
2021/07/14 04:20:41;;;;;;;15.27;10.70;;;19.90;99.90;;;;;;5076289;28;20267;-70
2021/07/14 04:23:07;;;;;;;11.90;10.53;;;19.90;99.90;;;;;;5076409;28;20188;-70
2021/07/14 04:25:33;;;;;;;12.40;11.10;;;19.90;99.90;;;;;;5073725;28;20505;-70
2021/07/14 04:27:58;;;;;;;17.73;12.03;;;19.90;99.90;;;;;;5075865;28;20181;-70
2021/07/14 04:30:24;;;;;;;12.27;11.03;;;19.90;99.90;;;;;;5075665;28;20192;-70
2021/07/14 04:32:50;;;;;;;15.30;12.17;;;19.80;99.90;;;;;;5074920;28;20192;-70
2021/07/14 04:35:15;;;;;;;18.83;13.67;;;19.80;99.90;;;;;;5073980;28;20619;-70
2021/07/14 04:37:42;;;;;;;16.10;13.20;;;19.80;99.90;;;;;;5072833;28;20197;-70
2021/07/14 04:40:08;;;;;;;14.20;12.77;;;19.80;99.90;;;;;;5072969;28;20192;-70
2021/07/14 04:42:34;;;;;;;14.40;13.07;;;19.80;99.90;;;;;;5072635;28;20402;-70
2021/07/14 04:44:59;;;;;;;16.80;13.80;;;19.90;99.90;;;;;;5072670;28;20481;-70
2021/07/14 04:47:24;;;;;;;16.30;14.17;;;19.90;99.90;;;;;;5071198;28;20258;-69
2021/07/14 04:49:50;;;;;;;16.47;14.53;;;19.90;99.90;;;;;;5073292;28;20684;-70
2021/07/14 04:52:16;;;;;;;19.77;14.67;;;19.90;99.90;;;;;;5074010;28;20218;-70
2021/07/14 04:54:42;;;;;;;18.70;13.10;;;19.90;99.90;;;;;;5073443;28;20170;-70
2021/07/14 04:57:08;;;;;;;16.00;13.00;;;19.90;99.90;;;;;;5072952;28;20174;-69
2021/07/14 04:59:35;;;;;;;17.90;13.77;;;19.90;99.90;;;;;;5072634;28;20187;-70
2021/07/14 05:02:02;;;;;;;16.37;13.00;;;19.90;99.90;;;;;;5071350;28;20420;-70
2021/07/14 05:04:27;;;;;;;15.27;12.17;;;19.80;99.90;;;;;;5072260;28;20506;-70
2021/07/14 05:06:53;;;;;;;14.97;11.70;;;19.80;99.90;;;;;;5072279;28;20639;-70
2021/07/14 05:09:18;;;;;;;18.30;13.73;;;19.90;99.90;;;;;;5072329;28;20196;-69
2021/07/14 05:11:44;;;;;;;18.40;14.37;;;19.90;99.90;;;;;;5070694;28;20163;-70
2021/07/14 05:14:09;;;;;;;17.17;12.60;;;19.90;99.90;;;;;;5072147;28;20591;-70
2021/07/14 05:16:34;;;;;;;17.23;15.27;;;20.00;99.90;;;;;;5072196;28;20494;-70
2021/07/14 05:19:02;;;;;;;20.53;14.90;;;20.00;99.90;;;;;;5071908;28;20193;-70
2021/07/14 05:21:28;;;;;;;20.57;14.80;;;20.00;99.90;;;;;;5069714;28;20182;-70
2021/07/14 05:23:54;;;;;;;22.03;16.87;;;20.10;99.90;;;;;;5071947;28;20454;-71
2021/07/14 05:26:19;;;;;;;19.40;15.67;;;20.20;99.90;;;;;;5071807;28;20200;-71
2021/07/14 05:28:45;;;;;;;19.60;14.90;;;20.20;99.90;;;;;;5070584;28;20725;-71
2021/07/14 05:31:11;;;;;;;22.90;16.57;;;20.40;99.90;;;;;;5071749;28;20226;-71
2021/07/14 05:33:36;;;;;;;19.07;16.40;;;20.40;99.90;;;;;;5071768;28;20510;-70
2021/07/14 05:36:02;;;;;;;18.20;16.20;;;20.40;99.90;;;;;;5071784;28;20180;-70
2021/07/14 05:38:28;;;;;;;20.53;16.40;;;20.50;99.90;;;;;;5071700;28;20684;-71
2021/07/14 05:40:54;;;;;;;18.77;16.00;;;20.50;99.90;;;;;;5070268;28;20419;-70
2021/07/14 05:43:20;;;;;;;16.43;14.60;;;20.50;99.90;;;;;;5071930;28;20303;-71
2021/07/14 05:45:46;;;;;;;18.60;15.23;;;20.60;99.90;;;;;;5071753;28;20191;-70
2021/07/14 05:48:11;;;;;;;16.70;14.00;;;20.60;99.90;;;;;;5071581;28;20412;-71
2021/07/14 05:50:38;;;;;;;17.30;14.53;;;20.60;99.90;;;;;;5071631;28;20411;-70
2021/07/14 05:53:04;;;;;;;14.83;13.43;;;20.80;99.90;;;;;;5071580;28;20488;-71
2021/07/14 05:55:30;;;;;;;13.43;12.13;;;20.90;99.90;;;;;;5071506;28;20747;-70
2021/07/14 05:57:56;;;;;;;15.40;13.50;;;21.20;99.90;;;;;;5070147;28;20422;-71
2021/07/14 06:00:21;;;;;;;22.83;13.60;;;21.40;99.90;;;;;;5071515;28;20197;-70
2021/07/14 06:02:47;;;;;;;14.60;13.00;;;21.40;99.90;;;;;;5069996;28;20266;-70
2021/07/14 06:05:13;;;;;;;17.53;12.70;;;21.60;99.90;;;;;;5071701;28;20286;-71
2021/07/14 06:07:39;;;;;;;15.20;12.27;;;21.60;99.90;;;;;;5071244;28;20171;-72
2021/07/14 06:10:06;;;;;;;13.80;12.40;;;21.60;99.90;;;;;;5071139;28;20513;-72
2021/07/14 06:12:31;;;;;;;13.10;11.90;;;21.60;99.90;;;;;;5071478;28;20949;-71
2021/07/14 06:14:57;;;;;;;14.57;13.23;;;21.60;99.90;;;;;;5071280;28;20504;-71
2021/07/14 06:17:22;;;;;;;13.87;12.47;;;21.70;99.90;;;;;;5071158;28;20181;-71
2021/07/14 06:19:48;;;;;;;14.73;13.23;;;21.60;99.90;;;;;;5071151;28;20203;-71
2021/07/14 06:22:13;;;;;;;15.33;13.77;;;21.50;99.90;;;;;;5071206;28;20180;-71
2021/07/14 06:24:40;;;;;;;15.77;13.93;;;21.50;99.90;;;;;;5071168;28;20171;-71
2021/07/14 06:27:06;;;;;;;14.83;12.73;;;21.70;99.90;;;;;;5071222;28;20284;-71
2021/07/14 06:29:32;;;;;;;16.90;12.47;;;21.70;99.90;;;;;;5071191;28;20828;-71
2021/07/14 06:31:58;;;;;;;15.53;13.93;;;21.70;99.90;;;;;;5071259;28;20446;-71
2021/07/14 06:34:24;;;;;;;15.13;13.30;;;21.90;99.90;;;;;;5074408;28;20183;-71
2021/07/14 06:36:50;;;;;;;14.90;13.43;;;21.70;99.90;;;;;;5075391;28;20456;-71
2021/07/14 06:39:15;;;;;;;16.47;14.70;;;21.60;99.90;;;;;;5084082;28;20535;-71
2021/07/14 06:41:41;;;;;;;16.83;15.10;;;21.70;99.90;;;;;;5097302;28;20515;-71
2021/07/14 06:44:06;;;;;;;15.77;14.03;;;21.80;99.90;;;;;;5097439;28;20228;-72
2021/07/14 06:46:32;;;;;;;16.30;14.67;;;21.90;99.90;;;;;;5097458;28;20222;-71
2021/07/14 06:48:58;;;;;;;14.63;13.20;;;22.00;99.90;;;;;;5095455;28;20776;-71
2021/07/14 06:51:24;;;;;;;17.20;14.80;;;21.70;99.90;;;;;;5095516;28;20468;-71
2021/07/14 06:53:50;;;;;;;15.60;14.00;;;21.70;99.90;;;;;;5095270;28;20408;-71
2021/07/14 06:56:16;;;;;;;17.10;15.50;;;21.70;99.90;;;;;;5097150;28;20409;-71
2021/07/14 06:58:42;;;;;;;15.53;14.13;;;21.60;99.90;;;;;;5095118;28;20191;-71
2021/07/14 07:01:08;;;;;;;15.47;14.03;;;21.60;99.90;;;;;;5095161;28;20175;-71
2021/07/14 07:03:34;;;;;;;15.80;14.40;;;21.60;99.90;;;;;;5095281;28;20193;-71
2021/07/14 07:06:01;;;;;;;16.80;15.20;;;21.70;99.90;;;;;;5095276;28;20572;-71
2021/07/14 07:08:27;;;;;;;15.80;14.10;;;21.60;99.90;;;;;;5094836;28;20405;-71
2021/07/14 07:10:52;;;;;;;15.90;13.33;;;21.70;99.90;;;;;;5094928;28;20737;-71
2021/07/14 07:13:18;;;;;;;14.73;13.23;;;21.80;99.90;;;;;;5096608;28;20177;-71
2021/07/14 07:15:45;;;;;;;13.17;12.03;;;21.70;99.90;;;;;;5094322;28;20167;-70
2021/07/14 07:18:11;;;;;;;14.53;13.23;;;21.80;99.90;;;;;;5094800;28;20414;-71
2021/07/14 07:20:37;;;;;;;15.00;13.60;;;21.90;99.90;;;;;;5094808;28;20425;-71
2021/07/14 07:23:02;;;;;;;13.57;12.17;;;22.00;99.90;;;;;;5094564;28;20932;-71
2021/07/14 07:25:28;;;;;;;15.00;13.50;;;22.00;99.90;;;;;;5094540;28;20233;-70
2021/07/14 07:27:56;;;;;;;15.37;13.80;;;22.10;99.90;;;;;;5094690;28;20165;-71
2021/07/14 07:30:22;;;;;;;13.60;12.30;;;22.30;99.90;;;;;;5094596;28;20602;-71
2021/07/14 07:32:47;;;;;;;14.80;13.50;;;22.50;99.90;;;;;;5094764;28;20399;-71
2021/07/14 07:35:13;;;;;;;14.80;13.43;;;22.50;99.90;;;;;;5094591;28;20175;-70
2021/07/14 07:37:38;;;;;;;16.20;12.77;;;22.50;99.90;;;;;;5094198;28;20636;-71
2021/07/14 07:40:05;;;;;;;13.40;12.10;;;22.60;99.90;;;;;;5094910;28;20204;-71
2021/07/14 07:42:31;;;;;;;13.77;12.47;;;22.70;99.90;;;;;;5095100;28;20620;-71
2021/07/14 07:44:57;;;;;;;17.07;15.30;;;22.80;99.90;;;;;;5093688;28;20509;-71
2021/07/14 07:47:23;;;;;;;14.00;12.73;;;22.60;99.90;;;;;;5086242;28;20169;-74
2021/07/14 07:49:49;;;;;;;15.63;12.87;;;22.80;99.90;;;;;;5097479;28;20441;-72
2021/07/14 07:52:15;;;;;;;15.63;14.23;;;22.90;99.90;;;;;;5095751;28;20412;-75
2021/07/14 07:54:41;;;;;;;13.00;11.77;;;22.80;99.90;;;;;;5094747;28;20175;-73
2021/07/14 07:57:07;;;;;;;12.83;11.50;;;23.00;99.90;;;;;;5085878;28;20446;-71
2021/07/14 07:59:34;;;;;;;13.00;11.80;;;23.00;99.90;;;;;;5083783;28;20434;-72
2021/07/14 08:02:01;;;;;;;13.40;12.03;;;23.10;99.90;;;;;;5093771;28;20406;-73
2021/07/14 08:04:27;;;;;;;14.30;12.97;;;22.90;99.90;;;;;;5076720;28;20438;-71
2021/07/14 08:06:52;;;;;;;12.57;11.40;;;23.40;99.90;;;;;;5073520;28;20446;-72
2021/07/14 08:09:18;;;;;;;13.00;11.80;;;23.60;99.90;;;;;;5073889;28;20187;-72
2021/07/14 08:11:43;;;;;;;12.30;10.80;;;23.20;99.90;;;;;;5074032;28;20640;-72
2021/07/14 08:14:09;;;;;;;12.60;11.60;;;23.00;99.90;;;;;;5079744;28;20166;-71
2021/07/14 08:16:35;;;;;;;14.00;12.60;;;22.90;99.90;;;;;;5078931;28;20535;-72
2021/07/14 08:19:01;;;;;;;12.20;11.10;;;23.10;99.90;;;;;;5080283;28;20546;-71
2021/07/14 08:21:26;;;;;;;12.37;11.20;;;23.30;99.90;;;;;;5083926;28;20265;-73
2021/07/14 08:23:52;;;;;;;14.23;12.93;;;23.40;99.90;;;;;;5094662;28;20173;-72
2021/07/14 08:26:18;;;;;;;13.67;10.90;;;23.20;99.90;;;;;;5076931;28;20277;-71
2021/07/14 08:28:43;;;;;;;13.27;12.17;;;23.30;99.90;;;;;;5074228;28;20229;-72
2021/07/14 08:31:10;;;;;;;11.53;10.53;;;23.20;99.90;;;;;;5073361;28;20176;-76
2021/07/14 08:33:35;;;;;;;11.13;10.23;;;23.60;99.90;;;;;;5074930;28;20179;-71
2021/07/14 08:36:01;;;;;;;11.30;10.20;;;23.70;99.90;;;;;;5089024;28;20449;-71
2021/07/14 08:38:28;;;;;;;10.47;9.50;;;23.70;99.90;;;;;;5089785;28;20314;-71
2021/07/14 08:40:53;;;;;;;11.83;9.63;;;23.90;99.90;;;;;;5094325;28;20426;-71
2021/07/14 08:43:20;;;;;;;11.20;10.13;;;24.00;99.90;;;;;;5080524;28;20815;-71
2021/07/14 08:45:47;;;;;;;10.47;9.57;;;23.80;99.90;;;;;;5075972;28;20289;-70
2021/07/14 08:48:14;;;;;;;10.13;9.27;;;23.90;99.90;;;;;;5095616;28;20414;-70
2021/07/14 08:50:44;;;;;;;10.63;9.57;;;23.90;99.90;;;;;;5094642;28;20499;-72
2021/07/14 08:53:20;;;;;;;10.20;9.30;;;24.20;99.90;;;;;;5093814;28;20991;-70
2021/07/14 08:55:47;;;;;;;9.33;8.63;;;24.40;99.90;;;;;;5087033;28;20424;-70
2021/07/14 08:58:19;;;;;;;9.27;8.40;;;24.60;99.90;;;;;;5090594;28;20439;-70
2021/07/14 09:00:46;;;;;;;8.47;7.70;;;24.60;99.90;;;;;;5102023;28;20416;-71
2021/07/14 09:03:12;;;;;;;9.60;8.63;;;24.90;99.90;;;;;;5099166;28;20467;-69
2021/07/14 09:05:37;;;;;;;12.77;9.10;;;24.50;99.90;;;;;;5071060;28;20592;-69
2021/07/14 09:08:03;;;;;;;11.40;10.50;;;24.30;99.90;;;;;;5072957;28;20622;-69
2021/07/14 09:10:29;;;;;;;10.83;10.03;;;24.40;99.90;;;;;;5090798;28;20186;-70
2021/07/14 09:12:58;;;;;;;11.40;10.50;;;24.70;99.90;;;;;;5091836;28;20454;-69
2021/07/14 09:15:26;;;;;;;12.03;10.03;;;24.30;99.90;;;;;;5089039;28;20494;-70
2021/07/14 09:17:54;;;;;;;10.87;9.77;;;24.20;99.90;;;;;;5072086;28;20420;-70
2021/07/14 09:20:29;;;;;;;11.70;10.70;;;24.60;99.90;;;;;;5072642;28;20532;-71
2021/07/14 09:23:09;;;;;;;11.87;10.80;;;25.50;99.90;;;;;;5071070;28;20787;-69
2021/07/14 09:25:43;;;;;;;11.87;10.97;;;24.90;99.90;;;;;;5073010;28;20452;-69
2021/07/14 09:28:10;;;;;;;11.50;10.40;;;25.30;99.90;;;;;;5072554;28;20410;-71
2021/07/14 09:30:37;;;;;;;10.00;9.13;;;25.70;99.90;;;;;;5072390;28;20404;-71
2021/07/14 09:33:05;;;;;;;10.70;9.80;;;26.30;99.90;;;;;;5072304;28;20408;-70
2021/07/14 09:35:38;;;;;;;9.83;8.93;;;26.20;99.90;;;;;;5072316;28;20715;-69
2021/07/14 09:38:27;;;;;;;10.83;9.97;;;26.40;99.90;;;;;;5072082;28;20404;-70
2021/07/14 09:40:59;;;;;;;9.40;8.70;;;26.00;99.90;;;;;;5074177;28;20757;-72
2021/07/14 09:43:30;;;;;;;10.30;9.50;;;25.90;99.90;;;;;;5083918;28;20438;-70
2021/07/14 09:46:00;;;;;;;9.47;8.57;;;26.70;99.90;;;;;;5080445;28;20479;-71
2021/07/14 09:48:36;;;;;;;9.83;8.93;;;26.90;99.90;;;;;;5093671;28;20404;-70
2021/07/14 09:51:09;;;;;;;11.47;10.33;;;26.70;99.90;;;;;;5092061;28;20415;-70
2021/07/14 09:53:36;;;;;;;10.57;9.67;;;26.90;99.90;;;;;;5092218;28;20464;-69
2021/07/14 09:56:22;;;;;;;10.97;9.97;;;26.30;99.90;;;;;;5092896;28;20407;-71
2021/07/14 09:59:05;;;;;;;11.77;10.77;;;25.80;99.90;;;;;;5089941;28;20522;-71
2021/07/14 10:01:36;;;;;;;11.83;8.67;;;26.30;99.90;;;;;;5072113;28;20743;-71
2021/07/14 10:04:03;;;;;;;9.80;9.00;;;26.40;99.90;;;;;;5071954;28;20426;-70
2021/07/14 10:06:29;;;;;;;10.37;9.47;;;26.30;99.90;;;;;;5071780;28;20450;-70
2021/07/14 10:09:03;;;;;;;12.70;9.60;;;26.10;99.90;;;;;;5071155;28;20450;-71
2021/07/14 10:11:29;;;;;;;9.90;9.00;;;25.80;99.90;;;;;;5071649;28;20255;-69
2021/07/14 10:13:56;;;;;;;10.30;9.40;;;25.50;99.90;;;;;;5078747;28;20424;-69
2021/07/14 10:16:22;;;;;;;10.23;9.53;;;25.20;99.90;;;;;;5086008;28;20936;-71
2021/07/14 10:19:10;;;;;;;10.67;9.80;;;25.30;99.90;;;;;;5071530;28;20426;-71
2021/07/14 10:21:44;;;;;;;9.70;8.90;;;25.10;99.90;;;;;;5071667;28;20416;-69
2021/07/14 10:24:12;;;;;;;10.00;9.10;;;25.10;99.90;;;;;;5075737;28;20485;-70
2021/07/14 10:26:39;;;;;;;9.80;8.80;;;24.90;99.90;;;;;;5079461;28;20499;-70
2021/07/14 10:29:07;;;;;;;8.77;8.10;;;25.20;99.90;;;;;;5091800;28;20429;-73
2021/07/14 10:31:33;;;;;;;10.10;8.40;;;25.20;99.90;;;;;;5085663;28;20423;-70
2021/07/14 10:33:59;;;;;;;10.27;9.37;;;25.10;99.90;;;;;;5075098;28;20488;-78
2021/07/14 10:36:30;;;;;;;24.60;22.50;;;25.30;99.90;;;;;;5071557;28;20471;-73
2021/07/14 10:39:01;;;;;;;9.20;8.40;;;25.00;99.90;;;;;;5071378;28;20438;-70
2021/07/14 10:41:29;;;;;;;9.67;8.87;;;24.80;99.90;;;;;;5077025;28;20787;-70
2021/07/14 10:43:56;;;;;;;9.67;8.77;;;25.10;99.90;;;;;;5074311;28;20412;-69
2021/07/14 10:46:26;;;;;;;10.00;9.03;;;25.20;99.90;;;;;;5075753;28;20465;-70
2021/07/14 10:48:53;;;;;;;11.37;10.47;;;25.20;99.90;;;;;;5088124;28;20428;-68
2021/07/14 10:51:19;;;;;;;9.07;8.30;;;25.30;99.90;;;;;;5084089;28;20411;-69
2021/07/14 10:53:48;;;;;;;10.40;8.87;;;25.50;99.90;;;;;;5079444;28;20432;-68
2021/07/14 10:56:14;;;;;;;10.20;9.20;;;25.60;99.90;;;;;;5079364;28;20792;-69
2021/07/14 10:58:42;;;;;;;10.00;9.13;;;25.50;99.90;;;;;;5091214;28;20426;-70
2021/07/14 11:01:08;;;;;;;9.60;8.80;;;25.30;99.90;;;;;;5077991;28;20412;-70
2021/07/14 11:03:36;;;;;;;9.10;8.27;;;25.10;99.90;;;;;;5075238;28;20440;-73
2021/07/14 11:06:02;;;;;;;8.10;7.30;;;25.40;99.90;;;;;;5090894;28;20453;-71
2021/07/14 11:08:47;;;;;;;8.10;7.50;;;25.40;99.90;;;;;;5076617;28;20433;-72
2021/07/14 11:11:18;;;;;;;7.63;7.00;;;25.70;99.90;;;;;;5071257;28;20408;-72
2021/07/14 11:13:45;;;;;;;7.60;7.00;;;25.80;99.90;;;;;;5081742;28;20433;-71
2021/07/14 11:16:30;;;;;;;7.50;6.47;;;25.40;99.90;;;;;;5091449;28;20441;-73
2021/07/14 11:19:07;;;;;;;7.63;6.83;;;25.80;99.90;;;;;;5092177;28;20495;-74
2021/07/14 11:21:53;;;;;;;7.30;6.70;;;25.70;99.90;;;;;;5095367;28;20406;-73
2021/07/14 11:24:37;;;;;;;6.93;6.23;;;25.70;99.90;;;;;;5090461;28;20820;-71
2021/07/14 11:27:27;;;;;;;8.67;7.03;;;25.50;99.90;;;;;;5074462;28;20477;-71
2021/07/14 11:30:04;;;;;;;6.63;6.13;;;25.70;99.90;;;;;;5074488;28;20427;-71
2021/07/14 11:32:39;;;;;;;8.07;6.77;;;25.20;99.90;;;;;;5073188;28;20458;-72
2021/07/14 11:35:22;;;;;;;6.23;5.77;;;24.90;99.90;;;;;;5074332;28;20405;-72
2021/07/14 11:37:51;;;;;;;6.80;6.10;;;25.10;99.90;;;;;;5074530;28;20826;-73
2021/07/14 11:40:20;;;;;;;6.83;6.13;;;25.10;99.90;;;;;;5086794;28;20510;-72
2021/07/14 11:43:08;;;;;;;7.47;6.73;;;25.20;99.90;;;;;;5093955;28;20905;-72
2021/07/14 11:45:34;;;;;;;5.97;5.47;;;25.40;99.90;;;;;;5078705;28;20548;-72
2021/07/14 11:48:12;;;;;;;7.03;6.47;;;25.40;99.90;;;;;;5092371;28;20467;-71
2021/07/14 11:50:46;;;;;;;5.73;5.23;;;25.50;99.90;;;;;;5084786;28;20186;-72
2021/07/14 11:53:35;;;;;;;15.80;14.17;;;25.80;99.90;;;;;;5094519;28;20421;-70
2021/07/14 11:56:15;;;;;;;10.60;9.60;;;26.00;99.90;;;;;;5093940;28;20418;-72
2021/07/14 11:59:03;;;;;;;7.63;6.90;;;26.30;99.90;;;;;;5093422;28;20427;-71
2021/07/14 12:01:31;;;;;;;8.50;7.67;;;26.20;99.90;;;;;;5094154;28;20408;-70
2021/07/14 12:04:02;;;;;;;5.50;5.10;;;26.10;99.90;;;;;;5092753;28;20442;-71
2021/07/14 12:06:34;;;;;;;8.00;6.40;;;25.90;99.90;;;;;;5079634;28;20520;-72
2021/07/14 12:09:23;;;;;;;6.40;5.80;;;26.10;99.90;;;;;;5073695;28;20427;-74
2021/07/14 12:11:50;;;;;;;9.90;4.83;;;26.20;99.90;;;;;;5079403;28;20426;-73
2021/07/14 12:14:18;;;;;;;7.03;4.70;;;26.10;99.90;;;;;;5094169;28;20432;-71
2021/07/14 12:16:47;;;;;;;6.37;5.80;;;26.20;99.90;;;;;;5087761;28;20418;-69
2021/07/14 12:19:21;;;;;;;6.87;5.93;;;26.00;99.90;;;;;;5093883;28;20936;-71
2021/07/14 12:21:48;;;;;;;6.33;5.47;;;26.60;99.90;;;;;;5094340;28;20579;-68
2021/07/14 12:24:32;;;;;;;6.50;5.90;;;26.70;99.90;;;;;;5093846;28;20422;-72
2021/07/14 12:27:20;;;;;;;6.60;5.20;;;27.00;99.90;;;;;;5073292;28;20462;-71
2021/07/14 12:29:51;;;;;;;5.00;4.60;;;27.10;99.90;;;;;;5073685;28;20414;-71
2021/07/14 12:32:33;;;;;;;6.53;5.77;;;26.90;99.90;;;;;;5073447;28;20426;-71
2021/07/14 12:34:59;;;;;;;6.60;5.53;;;26.90;99.90;;;;;;5078426;28;20403;-71
2021/07/14 12:37:25;;;;;;;7.30;4.97;;;26.90;99.90;;;;;;5093282;28;20399;-71
2021/07/14 12:39:50;;;;;;;5.07;4.67;;;27.00;99.90;;;;;;5093390;28;20817;-70
2021/07/14 12:42:21;;;;;;;5.20;4.80;;;26.60;99.90;;;;;;5093204;28;20211;-69
2021/07/14 12:44:48;;;;;;;5.30;4.90;;;27.00;99.90;;;;;;5093230;28;20174;-69
2021/07/14 12:47:15;;;;;;;6.10;5.00;;;26.80;99.90;;;;;;5094632;28;20458;-70